createdAt,value
2022-11-05T00:02:24.768Z,101626.00
2022-11-05T00:05:10.230Z,101641.00
2022-11-05T00:08:06.007Z,101631.00
2022-11-05T00:10:35.958Z,101634.00
2022-11-05T00:13:21.304Z,101643.00
2022-11-05T00:16:06.363Z,101640.00
2022-11-05T00:18:32.994Z,101645.00
2022-11-05T00:20:59.572Z,101639.00
2022-11-05T00:23:44.980Z,101639.00
2022-11-05T00:26:12.417Z,101644.00
2022-11-05T00:28:41.728Z,101646.00
2022-11-05T00:31:10.394Z,101644.00
2022-11-05T00:33:41.099Z,101647.00
2022-11-05T00:36:10.085Z,101646.00
2022-11-05T00:38:36.932Z,101644.00
2022-11-05T00:41:03.664Z,101662.00
2022-11-05T00:43:48.492Z,101651.00
2022-11-05T00:46:15.076Z,101650.00
2022-11-05T00:49:00.219Z,101649.00
2022-11-05T00:51:26.779Z,101643.00
2022-11-05T00:53:53.351Z,101650.00
2022-11-05T00:56:19.939Z,101645.00
2022-11-05T00:58:46.489Z,101638.00
2022-11-05T01:01:13.098Z,101648.00
2022-11-05T01:03:40.773Z,101642.00
2022-11-05T01:06:09.731Z,101636.00
2022-11-05T01:08:36.559Z,101639.00
2022-11-05T01:11:13.328Z,101633.00
2022-11-05T01:13:40.447Z,101637.00
2022-11-05T01:16:09.818Z,101637.00
2022-11-05T01:18:38.550Z,101640.00
2022-11-05T01:21:13.379Z,101651.00
2022-11-05T01:23:40.180Z,101656.00
2022-11-05T01:26:06.740Z,101664.00
2022-11-05T01:28:33.603Z,101657.00
2022-11-05T01:31:00.188Z,101656.00
2022-11-05T01:33:26.736Z,101654.00
2022-11-05T01:35:53.562Z,101663.00
2022-11-05T01:38:20.092Z,101657.00
2022-11-05T01:40:46.870Z,101658.00
2022-11-05T01:43:22.951Z,101658.00
2022-11-05T01:45:57.331Z,101659.00
2022-11-05T01:48:25.884Z,101656.00
2022-11-05T01:51:11.006Z,101660.00
2022-11-05T01:53:46.060Z,101655.00
2022-11-05T01:56:18.599Z,101651.00
2022-11-05T01:58:51.093Z,101650.00
2022-11-05T02:01:18.264Z,101647.00
2022-11-05T02:03:46.727Z,101653.00
2022-11-05T02:06:16.410Z,101653.00
2022-11-05T02:09:04.081Z,101657.00
2022-11-05T02:11:30.789Z,101663.00
2022-11-05T02:13:57.634Z,101658.00
2022-11-05T02:16:42.741Z,101667.00
2022-11-05T02:19:40.405Z,101658.00
2022-11-05T02:22:06.834Z,101661.00
2022-11-05T02:24:33.318Z,101664.00
2022-11-05T02:27:19.031Z,101681.00
2022-11-05T02:30:00.483Z,101673.00
2022-11-05T02:32:29.894Z,101673.00
2022-11-05T02:35:28.720Z,101671.00
2022-11-05T02:38:07.265Z,101668.00
2022-11-05T02:40:45.874Z,101665.00
2022-11-05T02:43:18.601Z,101669.00
2022-11-05T02:46:00.031Z,101673.00
2022-11-05T02:48:35.987Z,101673.00
2022-11-05T02:51:18.781Z,101672.00
2022-11-05T02:53:59.460Z,101668.00
2022-11-05T02:56:40.133Z,101655.00
2022-11-05T02:59:06.763Z,101655.00
2022-11-05T03:01:35.449Z,101657.00
2022-11-05T03:04:06.369Z,101661.00
2022-11-05T03:06:57.880Z,101659.00
2022-11-05T03:09:52.391Z,101659.00
2022-11-05T03:12:18.948Z,101655.00
2022-11-05T03:15:08.597Z,101647.00
2022-11-05T03:17:37.975Z,101649.00
2022-11-05T03:20:10.672Z,101647.00
2022-11-05T03:22:42.928Z,101651.00
2022-11-05T03:25:14.791Z,101648.00
2022-11-05T03:27:46.104Z,101659.00
2022-11-05T03:30:15.875Z,101650.00
2022-11-05T03:32:47.767Z,101644.00
2022-11-05T03:35:24.161Z,101652.00
2022-11-05T03:37:56.939Z,101650.00
2022-11-05T03:40:25.091Z,101663.00
2022-11-05T03:42:55.552Z,101660.00
2022-11-05T03:45:28.363Z,101661.00
2022-11-05T03:47:59.076Z,101662.00
2022-11-05T03:50:49.322Z,101670.00
2022-11-05T03:53:22.170Z,101669.00
2022-11-05T03:56:02.048Z,101668.00
2022-11-05T03:58:29.704Z,101658.00
2022-11-05T04:00:59.157Z,101662.00
2022-11-05T04:03:25.734Z,101667.00
2022-11-05T04:06:28.362Z,101674.00
2022-11-05T04:09:13.732Z,101674.00
2022-11-05T04:11:58.800Z,101666.00
2022-11-05T04:14:26.331Z,101672.00
2022-11-05T04:17:09.452Z,101676.00
2022-11-05T04:19:57.149Z,101676.00
2022-11-05T04:22:44.147Z,101673.00
2022-11-05T04:25:11.771Z,101671.00
2022-11-05T04:27:38.411Z,101675.00
2022-11-05T04:30:21.762Z,101680.00
2022-11-05T04:33:03.838Z,101678.00
2022-11-05T04:35:36.699Z,101681.00
2022-11-05T04:38:05.474Z,101682.00
2022-11-05T04:40:32.505Z,101677.00
2022-11-05T04:42:59.516Z,101679.00
2022-11-05T04:45:28.189Z,101681.00
2022-11-05T04:47:54.926Z,101688.00
2022-11-05T04:50:21.840Z,101682.00
2022-11-05T04:52:48.442Z,101679.00
2022-11-05T04:55:15.411Z,101677.00
2022-11-05T04:57:42.114Z,101686.00
2022-11-05T05:00:10.938Z,101683.00
2022-11-05T05:02:37.747Z,101684.00
2022-11-05T05:05:05.032Z,101683.00
2022-11-05T05:07:32.973Z,101669.00
2022-11-05T05:10:00.499Z,101675.00
2022-11-05T05:12:27.144Z,101678.00
2022-11-05T05:14:53.708Z,101672.00
2022-11-05T05:17:20.297Z,101671.00
2022-11-05T05:20:05.497Z,101675.00
2022-11-05T05:22:32.087Z,101672.00
2022-11-05T05:24:59.987Z,101668.00
2022-11-05T05:27:29.833Z,101672.00
2022-11-05T05:29:58.019Z,101672.00
2022-11-05T05:32:25.290Z,101672.00
2022-11-05T05:34:52.653Z,101673.00
2022-11-05T05:37:20.313Z,101669.00
2022-11-05T05:39:47.926Z,101683.00
2022-11-05T05:42:14.622Z,101673.00
2022-11-05T05:44:41.363Z,101668.00
2022-11-05T05:47:07.969Z,101667.00
2022-11-05T05:49:34.716Z,101661.00
2022-11-05T05:52:01.705Z,101669.00
2022-11-05T05:54:32.713Z,101672.00
2022-11-05T05:57:00.815Z,101675.00
2022-11-05T05:59:27.417Z,101674.00
2022-11-05T06:01:54.121Z,101673.00
2022-11-05T06:04:20.847Z,101679.00
2022-11-05T06:06:47.515Z,101682.00
2022-11-05T06:09:14.689Z,101680.00
2022-11-05T06:11:41.368Z,101692.00
2022-11-05T06:14:11.362Z,101688.00
2022-11-05T06:16:39.087Z,101697.00
2022-11-05T06:19:06.819Z,101703.00
2022-11-05T06:21:33.428Z,101710.00
2022-11-05T06:24:02.101Z,101709.00
2022-11-05T06:26:29.314Z,101713.00
2022-11-05T06:28:56.008Z,101704.00
2022-11-05T06:31:22.665Z,101706.00
2022-11-05T06:33:49.293Z,101705.00
2022-11-05T06:36:18.002Z,101704.00
2022-11-05T06:38:44.611Z,101705.00
2022-11-05T06:41:11.372Z,101710.00
2022-11-05T06:43:38.712Z,101712.00
2022-11-05T06:46:05.436Z,101711.00
2022-11-05T06:48:32.057Z,101714.00
2022-11-05T06:50:58.972Z,101719.00
2022-11-05T06:53:25.705Z,101721.00
2022-11-05T06:55:52.329Z,101724.00
2022-11-05T06:58:19.163Z,101727.00
2022-11-05T07:00:46.499Z,101726.00
2022-11-05T07:03:13.838Z,101717.00
2022-11-05T07:05:46.352Z,101721.00
2022-11-05T07:08:12.978Z,101714.00
2022-11-05T07:10:39.771Z,101723.00
2022-11-05T07:13:08.458Z,101730.00
2022-11-05T07:15:36.705Z,101731.00
2022-11-05T07:18:04.285Z,101724.00
2022-11-05T07:20:33.831Z,101721.00
2022-11-05T07:23:02.810Z,101719.00
2022-11-05T07:25:31.582Z,101709.00
2022-11-05T07:27:58.362Z,101697.00
2022-11-05T07:30:25.701Z,101700.00
2022-11-05T07:32:52.478Z,101708.00
2022-11-05T07:35:19.073Z,101698.00
2022-11-05T07:37:48.223Z,101720.00
2022-11-05T07:40:22.109Z,101704.00
2022-11-05T07:42:51.778Z,101712.00
2022-11-05T07:45:19.014Z,101712.00
2022-11-05T07:47:46.832Z,101705.00
2022-11-05T07:50:14.232Z,101710.00
2022-11-05T07:52:41.477Z,101704.00
2022-11-05T07:55:08.386Z,101711.00
2022-11-05T07:57:48.326Z,101715.00
2022-11-05T08:00:18.364Z,101718.00
2022-11-05T08:02:45.116Z,101714.00
2022-11-05T08:05:11.855Z,101712.00
2022-11-05T08:07:38.465Z,101710.00
2022-11-05T08:10:05.398Z,101714.00
2022-11-05T08:12:32.600Z,101711.00
2022-11-05T08:14:59.386Z,101708.00
2022-11-05T08:17:26.027Z,101714.00
2022-11-05T08:19:52.770Z,101711.00
2022-11-05T08:22:19.370Z,101705.00
2022-11-05T08:24:46.099Z,101710.00
2022-11-05T08:27:12.697Z,101705.00
2022-11-05T08:29:39.339Z,101714.00
2022-11-05T08:32:06.016Z,101718.00
2022-11-05T08:34:32.576Z,101708.00
2022-11-05T08:37:01.148Z,101713.00
2022-11-05T08:39:27.935Z,101706.00
2022-11-05T08:41:54.891Z,101714.00
2022-11-05T08:44:21.570Z,101711.00
2022-11-05T08:46:48.410Z,101715.00
2022-11-05T08:49:15.077Z,101712.00
2022-11-05T08:51:43.185Z,101715.00
2022-11-05T08:54:09.771Z,101728.00
2022-11-05T08:56:36.409Z,101727.00
2022-11-05T08:59:03.010Z,101730.00
2022-11-05T09:01:29.694Z,101735.00
2022-11-05T09:03:56.378Z,101733.00
2022-11-05T09:06:22.974Z,101734.00
2022-11-05T09:08:49.600Z,101728.00
2022-11-05T09:11:16.616Z,101727.00
2022-11-05T09:13:43.123Z,101722.00
2022-11-05T09:16:19.810Z,101727.00
2022-11-05T09:18:46.409Z,101721.00
2022-11-05T09:21:13.344Z,101720.00
2022-11-05T09:23:40.097Z,101724.00
2022-11-05T09:26:06.692Z,101729.00
2022-11-05T09:28:33.332Z,101724.00
2022-11-05T09:31:00.601Z,101722.00
2022-11-05T09:33:27.276Z,101727.00
2022-11-05T09:35:54.071Z,101727.00
2022-11-05T09:38:20.801Z,101729.00
2022-11-05T09:41:08.670Z,101726.00
2022-11-05T09:43:43.437Z,101725.00
2022-11-05T09:46:25.344Z,101723.00
2022-11-05T09:49:03.283Z,101722.00
2022-11-05T09:51:31.099Z,101718.00
2022-11-05T09:54:02.035Z,101712.00
2022-11-05T09:56:37.204Z,101714.00
2022-11-05T09:59:17.427Z,101722.00
2022-11-05T10:01:45.512Z,101718.00
2022-11-05T10:04:19.791Z,101723.00
2022-11-05T10:06:51.689Z,101728.00
2022-11-05T10:09:25.259Z,101723.00
2022-11-05T10:11:56.588Z,101734.00
2022-11-05T10:14:28.558Z,101719.00
2022-11-05T10:17:01.633Z,101726.00
2022-11-05T10:19:43.331Z,101728.00
2022-11-05T10:22:13.380Z,101726.00
2022-11-05T10:24:43.575Z,101719.00
2022-11-05T10:27:37.610Z,101716.00
2022-11-05T10:30:04.655Z,101716.00
2022-11-05T10:32:35.476Z,101713.00
2022-11-05T10:35:05.820Z,101706.00
2022-11-05T10:37:38.188Z,101710.00
2022-11-05T10:40:31.483Z,101700.00
2022-11-05T10:43:06.752Z,101704.00
2022-11-05T10:46:14.664Z,101704.00
2022-11-05T10:49:06.627Z,101703.00
2022-11-05T10:51:34.004Z,101715.00
2022-11-05T10:54:06.238Z,101710.00
2022-11-05T10:56:38.796Z,101715.00
2022-11-05T10:59:27.775Z,101712.00
2022-11-05T11:02:17.636Z,101711.00
2022-11-05T11:04:50.802Z,101703.00
2022-11-05T11:07:24.784Z,101705.00
2022-11-05T11:09:52.425Z,101709.00
2022-11-05T11:12:27.484Z,101704.00
2022-11-05T11:15:02.206Z,101708.00
2022-11-05T11:17:30.961Z,101703.00
2022-11-05T11:20:20.211Z,101692.00
2022-11-05T11:22:59.061Z,101688.00
2022-11-05T11:25:28.746Z,101683.00
2022-11-05T11:27:55.796Z,101674.00
2022-11-05T11:30:25.835Z,101667.00
2022-11-05T11:32:52.519Z,101684.00
2022-11-05T11:35:24.971Z,101674.00
2022-11-05T11:37:55.834Z,101674.00
2022-11-05T11:40:29.604Z,101676.00
2022-11-05T11:42:59.275Z,101663.00
2022-11-05T11:45:32.918Z,101668.00
2022-11-05T11:48:04.276Z,101660.00
2022-11-05T11:50:42.930Z,101660.00
2022-11-05T11:53:33.266Z,101664.00
2022-11-05T11:56:01.642Z,101661.00
2022-11-05T11:58:40.702Z,101660.00
2022-11-05T12:01:16.271Z,101660.00
2022-11-05T12:03:51.896Z,101656.00
2022-11-05T12:06:31.549Z,101649.00
2022-11-05T12:09:45.890Z,101645.00
2022-11-05T12:12:14.513Z,101650.00
2022-11-05T12:15:09.829Z,101652.00
2022-11-05T12:17:50.572Z,101651.00
2022-11-05T12:20:55.384Z,101664.00
2022-11-05T12:23:48.986Z,101662.00
2022-11-05T12:26:30.670Z,101662.00
2022-11-05T12:29:35.558Z,101654.00
2022-11-05T12:32:33.534Z,101652.00
2022-11-05T12:35:30.485Z,101645.00
2022-11-05T12:38:16.123Z,101639.00
2022-11-05T12:41:00.877Z,101639.00
2022-11-05T12:43:42.339Z,101634.00
2022-11-05T12:46:17.810Z,101636.00
2022-11-05T12:48:56.400Z,101639.00
2022-11-05T12:51:41.426Z,101635.00
2022-11-05T12:54:07.877Z,101634.00
2022-11-05T12:56:40.818Z,101628.00
2022-11-05T12:59:26.784Z,101631.00
2022-11-05T13:02:10.938Z,101624.00
2022-11-05T13:04:51.085Z,101624.00
2022-11-05T13:07:27.476Z,101616.00
2022-11-05T13:10:29.912Z,101605.00
2022-11-05T13:13:06.584Z,101604.00
2022-11-05T13:15:37.882Z,101616.00
2022-11-05T13:18:30.055Z,101594.00
2022-11-05T13:20:57.622Z,101589.00
2022-11-05T13:23:39.188Z,101596.00
2022-11-05T13:26:19.880Z,101594.00
2022-11-05T13:29:05.211Z,101592.00
2022-11-05T13:31:36.611Z,101595.00
2022-11-05T13:34:09.879Z,101589.00
2022-11-05T13:37:35.044Z,101592.00
2022-11-05T13:40:08.360Z,101598.00
2022-11-05T13:42:54.718Z,101603.00
2022-11-05T13:45:21.229Z,101596.00
2022-11-05T13:47:53.904Z,101599.00
2022-11-05T13:50:32.639Z,101592.00
2022-11-05T13:53:09.414Z,101585.00
2022-11-05T13:55:44.981Z,101582.00
2022-11-05T13:58:23.548Z,101600.00
2022-11-05T14:01:12.551Z,101587.00
2022-11-05T14:03:46.540Z,101584.00
2022-11-05T14:06:13.316Z,101583.00
2022-11-05T14:08:49.248Z,101584.00
2022-11-05T14:11:21.229Z,101583.00
2022-11-05T14:13:52.478Z,101578.00
2022-11-05T14:16:24.301Z,101576.00
2022-11-05T14:19:15.560Z,101577.00
2022-11-05T14:21:51.686Z,101564.00
2022-11-05T14:24:26.620Z,101569.00
2022-11-05T14:27:02.315Z,101570.00
2022-11-05T14:29:46.186Z,101578.00
2022-11-05T14:32:21.458Z,101570.00
2022-11-05T14:35:15.356Z,101570.00
2022-11-05T14:37:52.031Z,101567.00
2022-11-05T14:40:21.650Z,101572.00
2022-11-05T14:43:00.313Z,101567.00
2022-11-05T14:45:34.954Z,101566.00
2022-11-05T14:48:05.016Z,101562.00
2022-11-05T14:50:42.424Z,101574.00
2022-11-05T14:53:36.929Z,101571.00
2022-11-05T14:56:16.483Z,101558.00
2022-11-05T14:58:44.308Z,101547.00
2022-11-05T15:01:13.955Z,101537.00
2022-11-05T15:03:45.956Z,101537.00
2022-11-05T15:06:34.389Z,101546.00
2022-11-05T15:09:13.306Z,101545.00
2022-11-05T15:11:44.870Z,101540.00
2022-11-05T15:14:27.072Z,101542.00
2022-11-05T15:16:55.988Z,101540.00
2022-11-05T15:19:31.121Z,101528.00
2022-11-05T15:22:00.758Z,101534.00
2022-11-05T15:24:28.304Z,101528.00
2022-11-05T15:27:11.683Z,101530.00
2022-11-05T15:29:38.473Z,101531.00
2022-11-05T15:32:05.375Z,101524.00
2022-11-05T15:34:35.542Z,101522.00
2022-11-05T15:37:11.886Z,101523.00
2022-11-05T15:39:46.993Z,101517.00
2022-11-05T15:42:23.594Z,101514.00
2022-11-05T15:44:54.904Z,101519.00
2022-11-05T15:47:34.888Z,101524.00
2022-11-05T15:50:08.656Z,101525.00
2022-11-05T15:52:47.456Z,101522.00
2022-11-05T15:55:13.989Z,101517.00
2022-11-05T15:57:51.284Z,101518.00
2022-11-05T16:00:22.812Z,101504.00
2022-11-05T16:03:00.557Z,101508.00
2022-11-05T16:05:31.126Z,101520.00
2022-11-05T16:07:59.759Z,101504.00
2022-11-05T16:10:32.097Z,101497.00
2022-11-05T16:13:21.472Z,101495.00
2022-11-05T16:15:59.862Z,101503.00
2022-11-05T16:18:33.267Z,101484.00
2022-11-05T16:21:13.228Z,101486.00
2022-11-05T16:24:06.594Z,101484.00
2022-11-05T16:29:34.084Z,101477.00
2022-11-05T16:32:03.219Z,101480.00
2022-11-05T16:34:37.913Z,101472.00
2022-11-05T16:37:06.305Z,101472.00
2022-11-05T16:39:33.497Z,101476.00
2022-11-05T16:42:00.091Z,101473.00
2022-11-05T16:44:26.838Z,101481.00
2022-11-05T16:46:53.759Z,101479.00
2022-11-05T16:49:20.737Z,101484.00
2022-11-05T16:51:47.381Z,101488.00
2022-11-05T16:54:13.953Z,101487.00
2022-11-05T16:56:42.482Z,101485.00
2022-11-05T16:59:12.904Z,101487.00
2022-11-05T17:01:42.316Z,101494.00
2022-11-05T17:04:13.051Z,101497.00
2022-11-05T17:06:39.664Z,101501.00
2022-11-05T17:09:06.282Z,101495.00
2022-11-05T17:11:32.811Z,101501.00
2022-11-05T17:13:59.387Z,101514.00
2022-11-05T17:16:26.845Z,101506.00
2022-11-05T17:18:53.635Z,101523.00
2022-11-05T17:21:20.319Z,101522.00
2022-11-05T17:23:46.894Z,101533.00
2022-11-05T17:26:14.229Z,101548.00
2022-11-05T17:28:41.197Z,101542.00
2022-11-05T17:31:09.889Z,101539.00
2022-11-05T17:33:36.879Z,101535.00
2022-11-05T17:36:13.600Z,101533.00
2022-11-05T17:38:40.693Z,101534.00
2022-11-05T17:41:12.200Z,101534.00
2022-11-05T17:43:39.043Z,101518.00
2022-11-05T17:46:11.570Z,101508.00
2022-11-05T17:48:38.708Z,101495.00
2022-11-05T17:51:09.549Z,101487.00
2022-11-05T17:53:36.521Z,101523.00
2022-11-05T17:56:08.107Z,101541.00
2022-11-05T17:58:34.681Z,101520.00
2022-11-05T18:01:01.467Z,101507.00
2022-11-05T18:03:28.144Z,101502.00
2022-11-05T18:06:06.506Z,101494.00
2022-11-05T18:08:33.606Z,101494.00
2022-11-05T18:11:00.240Z,101475.00
2022-11-05T18:13:26.918Z,101488.00
2022-11-05T18:15:54.171Z,101489.00
2022-11-05T18:18:21.709Z,101483.00
2022-11-05T18:20:48.296Z,101479.00
2022-11-05T18:23:15.117Z,101491.00
2022-11-05T18:25:42.568Z,101472.00
2022-11-05T18:28:09.894Z,101477.00
2022-11-05T18:30:38.425Z,101476.00
2022-11-05T18:33:05.159Z,101485.00
2022-11-05T18:35:34.184Z,101488.00
2022-11-05T18:38:00.872Z,101483.00
2022-11-05T18:40:27.763Z,101479.00
2022-11-05T18:42:54.400Z,101483.00
2022-11-05T18:45:24.341Z,101464.00
2022-11-05T18:47:53.483Z,101466.00
2022-11-05T18:50:20.328Z,101465.00
2022-11-05T18:52:47.006Z,101468.00
2022-11-05T18:55:13.599Z,101472.00
2022-11-05T18:57:40.373Z,101470.00
2022-11-05T19:00:07.624Z,101470.00
2022-11-05T19:02:34.456Z,101472.00
2022-11-05T19:07:48.084Z,101482.00
2022-11-05T19:10:15.128Z,101473.00
2022-11-05T19:12:41.880Z,101469.00
2022-11-05T19:15:09.291Z,101468.00
2022-11-05T19:17:36.724Z,101476.00
2022-11-05T19:20:04.656Z,101482.00
2022-11-05T19:22:32.139Z,101480.00
2022-11-05T19:24:58.897Z,101476.00
2022-11-05T19:27:25.538Z,101478.00
2022-11-05T19:29:52.392Z,101470.00
2022-11-05T19:32:19.853Z,101474.00
2022-11-05T19:34:46.696Z,101473.00
2022-11-05T19:37:13.279Z,101464.00
2022-11-05T19:39:41.223Z,101461.00
2022-11-05T19:42:07.992Z,101466.00
2022-11-05T19:44:34.634Z,101461.00
2022-11-05T19:47:01.186Z,101453.00
2022-11-05T19:49:28.570Z,101457.00
2022-11-05T19:51:55.251Z,101455.00
2022-11-05T19:54:22.010Z,101455.00
2022-11-05T19:56:52.829Z,101448.00
2022-11-05T19:59:19.464Z,101448.00
2022-11-05T20:01:46.200Z,101449.00
2022-11-05T20:04:13.049Z,101457.00
2022-11-05T20:06:40.725Z,101442.00
2022-11-05T20:09:27.456Z,101446.00
2022-11-05T20:11:56.278Z,101438.00
2022-11-05T20:14:24.648Z,101450.00
2022-11-05T20:16:51.572Z,101452.00
2022-11-05T20:19:20.246Z,101456.00
2022-11-05T20:21:47.160Z,101448.00
2022-11-05T20:24:23.321Z,101448.00
2022-11-05T20:26:50.736Z,101441.00
2022-11-05T20:29:17.457Z,101448.00
2022-11-05T20:31:44.082Z,101443.00
2022-11-05T20:34:10.705Z,101447.00
2022-11-05T20:36:38.456Z,101441.00
2022-11-05T20:39:05.804Z,101436.00
2022-11-05T20:41:33.440Z,101438.00
2022-11-05T20:44:00.117Z,101441.00
2022-11-05T20:46:26.781Z,101437.00
2022-11-05T20:48:54.127Z,101441.00
2022-11-05T20:51:24.186Z,101441.00
2022-11-05T20:53:55.510Z,101439.00
2022-11-05T20:56:25.102Z,101437.00
2022-11-05T20:58:51.716Z,101437.00
2022-11-05T21:01:19.683Z,101433.00
2022-11-05T21:03:47.714Z,101429.00
2022-11-05T21:06:15.191Z,101430.00
2022-11-05T21:08:42.211Z,101433.00
2022-11-05T21:11:10.143Z,101423.00
2022-11-05T21:13:36.732Z,101434.00
2022-11-05T21:16:06.605Z,101437.00
2022-11-05T21:18:35.109Z,101436.00
2022-11-05T21:21:08.824Z,101439.00
2022-11-05T21:23:35.779Z,101440.00
2022-11-05T21:26:06.644Z,101436.00
2022-11-05T21:28:34.134Z,101445.00
2022-11-05T21:31:05.364Z,101442.00
2022-11-05T21:33:33.423Z,101445.00
2022-11-05T21:36:09.035Z,101445.00
2022-11-05T21:38:35.869Z,101449.00
2022-11-05T21:41:03.584Z,101444.00
2022-11-05T21:43:30.455Z,101439.00
2022-11-05T21:46:01.275Z,101434.00
2022-11-05T21:48:27.864Z,101423.00
2022-11-05T21:51:13.168Z,101409.00
2022-11-05T21:53:58.540Z,101417.00
2022-11-05T21:56:45.319Z,101412.00
2022-11-05T21:59:32.822Z,101410.00
2022-11-05T22:02:02.851Z,101413.00
2022-11-05T22:04:37.482Z,101402.00
2022-11-05T22:07:05.064Z,101393.00
2022-11-05T22:09:31.759Z,101395.00
2022-11-05T22:11:59.459Z,101399.00
2022-11-05T22:14:26.747Z,101400.00
2022-11-05T22:16:53.369Z,101390.00
2022-11-05T22:19:20.469Z,101396.00
2022-11-05T22:21:47.673Z,101391.00
2022-11-05T22:24:14.712Z,101391.00
2022-11-05T22:26:42.692Z,101382.00
2022-11-05T22:29:09.321Z,101381.00
2022-11-05T22:31:36.874Z,101377.00
2022-11-05T22:34:04.776Z,101382.00
2022-11-05T22:36:32.655Z,101385.00
2022-11-05T22:38:59.366Z,101382.00
2022-11-05T22:41:25.950Z,101374.00
2022-11-05T22:43:52.531Z,101381.00
2022-11-05T22:46:22.564Z,101384.00
2022-11-05T22:48:49.844Z,101375.00
2022-11-05T22:51:21.915Z,101365.00
2022-11-05T22:53:49.271Z,101359.00
2022-11-05T22:56:20.622Z,101362.00
2022-11-05T22:58:47.564Z,101360.00
2022-11-05T23:01:15.694Z,101360.00
2022-11-05T23:03:44.455Z,101346.00
2022-11-05T23:06:34.563Z,101365.00
2022-11-05T23:09:20.419Z,101346.00
2022-11-05T23:11:50.321Z,101352.00
2022-11-05T23:14:16.918Z,101357.00
2022-11-05T23:17:02.553Z,101347.00
2022-11-05T23:19:47.926Z,101343.00
2022-11-05T23:22:38.524Z,101341.00
2022-11-05T23:25:07.303Z,101346.00
2022-11-05T23:27:35.869Z,101341.00
2022-11-05T23:30:22.949Z,101339.00
2022-11-05T23:32:50.784Z,101335.00
2022-11-05T23:35:38.486Z,101318.00
2022-11-05T23:38:24.455Z,101315.00
2022-11-05T23:41:09.231Z,101318.00
2022-11-05T23:44:08.310Z,101315.00
2022-11-05T23:46:54.165Z,101309.00
2022-11-05T23:49:21.357Z,101309.00
2022-11-05T23:51:49.203Z,101315.00
2022-11-05T23:54:15.777Z,101300.00
2022-11-05T23:56:42.364Z,101305.00
2022-11-05T23:59:09.001Z,101297.00
